createdAt,value
2018-08-10T00:03:21.239Z,16.2
2018-08-10T00:09:16.254Z,15.99
2018-08-10T00:15:11.243Z,15.82
2018-08-10T00:21:06.282Z,15.82
2018-08-10T00:27:01.275Z,15.64
2018-08-10T00:32:56.283Z,16.12
2018-08-10T00:38:51.326Z,16
2018-08-10T00:44:46.304Z,16.36
2018-08-10T00:50:41.285Z,16.09
2018-08-10T00:56:36.297Z,16.24
2018-08-10T01:02:31.284Z,17.09
2018-08-10T01:08:26.321Z,16.58
2018-08-10T01:14:21.281Z,16.9
2018-08-10T01:20:16.311Z,16.29
2018-08-10T01:26:11.308Z,17.11
2018-08-10T01:32:06.338Z,18.38
2018-08-10T01:38:01.309Z,18.28
2018-08-10T01:43:56.320Z,17.58
2018-08-10T01:49:51.341Z,17.63
2018-08-10T01:55:46.336Z,17.26
2018-08-10T02:01:41.336Z,18.09
2018-08-10T02:07:36.374Z,17.06
2018-08-10T02:13:31.315Z,17.63
2018-08-10T02:19:26.322Z,17.32
2018-08-10T02:25:21.373Z,17.4
2018-08-10T02:31:16.348Z,17.29
2018-08-10T02:37:11.345Z,17.41
2018-08-10T02:43:06.349Z,17.66
2018-08-10T02:49:01.381Z,17.9
2018-08-10T02:54:56.356Z,17.32
2018-08-10T03:00:51.397Z,17.13
2018-08-10T03:06:46.420Z,17.53
2018-08-10T03:12:41.399Z,16.8
2018-08-10T03:18:36.370Z,16.51
2018-08-10T03:24:31.370Z,16.97
2018-08-10T03:30:26.384Z,16.75
2018-08-10T03:36:21.403Z,17.25
2018-08-10T03:42:16.374Z,15.85
2018-08-10T03:48:11.415Z,16.77
2018-08-10T03:54:06.416Z,17.05
2018-08-10T04:00:01.539Z,17.21
2018-08-10T04:05:56.445Z,16.87
2018-08-10T04:11:51.418Z,17.63
2018-08-10T04:17:46.446Z,16.72
2018-08-10T04:23:41.435Z,16.44
2018-08-10T04:29:36.441Z,17.67
2018-08-10T04:35:31.455Z,16.42
2018-08-10T04:41:26.465Z,17.14
2018-08-10T04:47:21.476Z,18.38
2018-08-10T04:53:16.440Z,17.97
2018-08-10T04:59:11.435Z,17.29
2018-08-10T05:05:06.489Z,16.94
2018-08-10T05:11:01.520Z,16.91
2018-08-10T05:16:56.463Z,17.45
2018-08-10T05:22:51.457Z,17.23
2018-08-10T05:28:46.503Z,17.87
2018-08-10T05:34:41.478Z,16.85
2018-08-10T05:40:36.472Z,16.53
2018-08-10T05:46:31.494Z,16.53
2018-08-10T05:52:26.550Z,15.18
2018-08-10T05:58:21.488Z,15.31
2018-08-10T06:04:16.483Z,14.7
2018-08-10T06:10:11.528Z,15.6
2018-08-10T06:16:06.502Z,16.26
2018-08-10T06:22:01.510Z,14.97
2018-08-10T06:27:56.668Z,15.6
2018-08-10T06:33:51.618Z,15.5
2018-08-10T06:39:46.580Z,15.71
2018-08-10T06:45:41.520Z,15.88
2018-08-10T06:51:36.579Z,17.48
2018-08-10T06:57:31.570Z,17.1
2018-08-10T07:03:26.551Z,4.01
2018-08-10T07:09:21.548Z,16.51
2018-08-10T07:15:16.585Z,16.55
2018-08-10T07:21:11.542Z,15.19
2018-08-10T07:27:06.685Z,16.82
2018-08-10T07:33:01.632Z,15.22
2018-08-10T07:38:56.550Z,16.13
2018-08-10T07:44:51.622Z,15.42
2018-08-10T07:50:46.578Z,16.47
2018-08-10T07:56:41.571Z,16.17
2018-08-10T08:02:36.596Z,16.66
2018-08-10T08:08:31.622Z,16.61
2018-08-10T08:14:26.586Z,15.53
2018-08-10T08:20:21.596Z,16.66
2018-08-10T08:26:16.590Z,17.43
2018-08-10T08:32:11.626Z,14.43
2018-08-10T08:38:06.620Z,13.16
2018-08-10T08:44:01.615Z,12.89
2018-08-10T08:49:56.690Z,13.49
2018-08-10T08:55:51.641Z,14.06
2018-08-10T09:01:46.642Z,11.11
2018-08-10T09:07:41.787Z,11.66
2018-08-10T09:13:36.649Z,11.24
2018-08-10T09:19:31.671Z,10.74
2018-08-10T09:25:26.645Z,10.41
2018-08-10T09:31:21.662Z,9.87
2018-08-10T09:37:16.659Z,9.55
2018-08-10T09:43:11.657Z,8.04
2018-08-10T09:49:06.673Z,5.7
2018-08-10T09:55:01.684Z,5.03
2018-08-10T10:00:56.718Z,4.7
2018-08-10T10:06:51.701Z,4.06
2018-08-10T10:12:46.699Z,4.79
2018-08-10T10:18:41.735Z,3.9
2018-08-10T10:24:36.706Z,3.61
2018-08-10T10:30:31.686Z,3.17
2018-08-10T10:36:26.691Z,3.71
2018-08-10T10:42:21.738Z,3.73
2018-08-10T10:48:16.719Z,3.53
2018-08-10T10:54:11.715Z,3.09
2018-08-10T11:00:06.721Z,3.82
2018-08-10T11:06:01.780Z,3.35
2018-08-10T11:11:01.966Z,3.88
2018-08-10T11:16:56.959Z,2.98
2018-08-10T11:22:51.960Z,3.26
2018-08-10T11:28:46.954Z,3.64
2018-08-10T11:34:41.958Z,3.74
2018-08-10T11:40:36.983Z,4.26
2018-08-10T11:46:32.031Z,4.74
2018-08-10T11:52:27.027Z,3.43
2018-08-10T11:58:21.995Z,3.52
2018-08-10T12:04:17.017Z,3.46
2018-08-10T12:10:12.004Z,3.36
2018-08-10T12:16:07.003Z,3.05
2018-08-10T12:22:02.021Z,3.09
2018-08-10T12:27:57.022Z,3.56
2018-08-10T12:33:52.035Z,3.36
2018-08-10T12:39:47.040Z,3.15
2018-08-10T12:45:42.052Z,3.01
2018-08-10T12:51:37.013Z,2.65
2018-08-10T12:57:32.041Z,2.95
2018-08-10T13:03:27.061Z,3.34
2018-08-10T13:09:22.054Z,2.89
2018-08-10T13:15:17.047Z,2.51
2018-08-10T13:21:12.055Z,3.14
2018-08-10T13:27:07.082Z,2.45
2018-08-10T13:33:02.122Z,2.69
2018-08-10T13:38:57.077Z,3.07
2018-08-10T13:44:52.067Z,3.03
2018-08-10T13:50:47.081Z,2.6
2018-08-10T13:56:42.134Z,2.61
2018-08-10T14:02:37.106Z,2.52
2018-08-10T14:08:32.079Z,3.48
2018-08-10T14:14:27.150Z,2.89
2018-08-10T14:20:22.160Z,2.44
2018-08-10T14:26:17.114Z,2.63
2018-08-10T14:32:12.103Z,2.5
2018-08-10T14:38:07.142Z,2.79
2018-08-10T14:44:02.138Z,2.7
2018-08-10T14:49:57.121Z,2.75
2018-08-10T14:55:52.124Z,2.65
2018-08-10T15:01:47.142Z,2.64
2018-08-10T15:07:42.127Z,2.65
2018-08-10T15:13:37.189Z,2.53
2018-08-10T15:19:32.191Z,2.77
2018-08-10T15:25:27.173Z,2.96
2018-08-10T15:31:22.195Z,2.54
2018-08-10T15:37:17.176Z,2.81
2018-08-10T15:43:12.157Z,2.87
2018-08-10T15:49:07.160Z,3.04
2018-08-10T15:55:02.236Z,2.3
2018-08-10T16:00:57.224Z,2.49
2018-08-10T16:06:52.167Z,2.56
2018-08-10T16:12:47.183Z,2.87
2018-08-10T16:18:42.260Z,2.5
2018-08-10T16:24:37.204Z,2.16
2018-08-10T16:30:32.242Z,2.33
2018-08-10T16:36:27.211Z,2.73
2018-08-10T16:42:22.228Z,2.79
2018-08-10T16:48:17.248Z,2.57
2018-08-10T16:54:12.285Z,2.18
2018-08-10T17:00:07.223Z,2.25
2018-08-10T17:06:02.223Z,2.39
2018-08-10T17:11:57.250Z,1.96
2018-08-10T17:17:52.270Z,2.49
2018-08-10T17:23:47.248Z,1.94
2018-08-10T17:29:42.284Z,2.3
2018-08-10T17:35:37.310Z,2.31
2018-08-10T17:41:32.260Z,2.38
2018-08-10T17:47:27.265Z,2.41
2018-08-10T17:53:22.257Z,2.45
2018-08-10T17:59:17.282Z,2.63
2018-08-10T18:05:12.280Z,2.33
2018-08-10T18:11:07.284Z,2.83
2018-08-10T18:17:02.294Z,2.72
2018-08-10T18:22:57.295Z,2.6
2018-08-10T18:28:52.296Z,2.57
2018-08-10T18:34:47.295Z,2.35
2018-08-10T18:40:42.399Z,3.11
2018-08-10T18:46:37.316Z,2.8
2018-08-10T18:52:32.313Z,2.8
2018-08-10T18:58:27.309Z,2.73
2018-08-10T19:04:22.326Z,2.93
2018-08-10T19:10:17.329Z,2.58
2018-08-10T19:16:12.342Z,2.35
2018-08-10T19:22:07.383Z,2.8
2018-08-10T19:28:02.340Z,3.38
2018-08-10T19:33:57.360Z,3.1
2018-08-10T19:39:52.456Z,3.61
2018-08-10T19:45:47.354Z,3.94
2018-08-10T19:51:42.371Z,3.86
2018-08-10T19:57:37.370Z,3.56
2018-08-10T20:03:32.372Z,3.7
2018-08-10T20:09:27.399Z,4.09
2018-08-10T20:15:22.471Z,4.01
2018-08-10T20:21:17.388Z,4.08
2018-08-10T20:27:12.468Z,4.12
2018-08-10T20:33:07.403Z,4.44
2018-08-10T20:39:02.398Z,4.1
2018-08-10T20:44:57.414Z,3.85
2018-08-10T20:50:52.422Z,4.3
2018-08-10T20:56:47.405Z,3.85
2018-08-10T21:02:42.470Z,4.12
2018-08-10T21:08:37.464Z,4.18
2018-08-10T21:14:32.409Z,4.31
2018-08-10T21:20:27.410Z,3.76
2018-08-10T21:26:22.434Z,4.2
2018-08-10T21:32:17.451Z,4.38
2018-08-10T21:38:12.450Z,4.51
2018-08-10T21:44:07.452Z,4.14
2018-08-10T21:50:02.451Z,4.58
2018-08-10T21:55:57.469Z,4.46
2018-08-10T22:01:52.466Z,4.39
2018-08-10T22:07:47.503Z,5.25
2018-08-10T22:13:42.449Z,4.72
2018-08-10T22:19:37.476Z,4.63
2018-08-10T22:25:32.462Z,4.29
2018-08-10T22:31:27.496Z,4.16
2018-08-10T22:37:22.474Z,4.52
2018-08-10T22:43:17.489Z,4.58
2018-08-10T22:49:12.466Z,4.31
2018-08-10T22:55:07.492Z,4.45
2018-08-10T23:01:02.499Z,4.4
2018-08-10T23:06:57.494Z,4.73
2018-08-10T23:12:52.541Z,4.92
2018-08-10T23:18:47.513Z,4.67
2018-08-10T23:24:42.504Z,4.2
2018-08-10T23:30:37.715Z,4.15
2018-08-10T23:36:32.529Z,4.05
2018-08-10T23:42:27.528Z,4.09
2018-08-10T23:48:22.517Z,4.7
2018-08-10T23:54:17.555Z,4.7
